Time;durP1;ratioP1;P1;durP2;ratioP2;P2;SDS_P1;SDS_P2;PMS_P1;PMS_P2;Temp;Humidity;BMP_temperature;BMP_pressure;BME280_temperature;BME280_humidity;BME280_pressure;Samples;Min_cycle;Max_cycle;Signal;HPM_P1;HPM_P2
2023/01/25 00:02:23;;;;;;;;;;;5.60;72.70;;;4.29;56.83;102636.00;6153287;23;20254;-82
2023/01/25 00:04:50;;;;;;;;;;;5.50;72.90;;;4.31;56.89;102623.56;6152654;23;20015;-83
2023/01/25 00:07:17;;;;;;;;;;;5.50;73.00;;;4.33;56.77;102618.97;6152617;23;19920;-82
2023/01/25 00:09:44;;;;;;;;;;;5.60;72.90;;;4.31;57.05;102620.91;6152315;23;19931;-82
2023/01/25 00:12:11;;;;;;;;;;;5.60;72.90;;;4.29;56.96;102613.06;6152755;23;19928;-80
2023/01/25 00:14:38;;;;;;;;;;;5.60;72.90;;;4.30;57.43;102613.94;6151930;23;19951;-80
2023/01/25 00:17:06;;;;;;;;;;;5.50;73.10;;;4.33;57.30;102611.06;6152282;23;19916;-80
2023/01/25 00:19:33;;;;;;;;;;;5.50;73.10;;;4.32;56.79;102607.56;6151648;23;19925;-80
2023/01/25 00:22:00;;;;;;;;;;;5.50;73.10;;;4.31;57.19;102602.41;6152946;23;19923;-80
2023/01/25 00:24:27;;;;;;;;;;;5.50;73.10;;;4.34;57.08;102610.09;6152188;23;20011;-80
2023/01/25 00:26:54;;;;;;;;;;;5.50;73.30;;;4.29;56.87;102597.22;6152321;23;19930;-80
2023/01/25 00:29:21;;;;;;;;;;;5.50;73.10;;;4.27;57.00;102595.69;6151877;23;19921;-82
2023/01/25 00:31:58;;;;;;;;;;;5.50;73.20;;;4.27;57.32;102595.69;6152162;23;20003;-82
2023/01/25 00:34:44;;;;;;;;;;;5.50;73.30;;;4.29;56.94;102593.75;6150983;23;20004;-83
2023/01/25 00:37:14;;;;;;;;;;;5.50;73.00;;;4.33;56.47;102597.84;6150843;23;19927;-80
2023/01/25 00:39:41;;;;;;;;;;;5.50;72.80;;;4.24;56.79;102583.53;6152504;23;19951;-80
2023/01/25 00:42:09;;;;;;;;;;;5.50;72.70;;;4.18;56.96;102585.81;6149891;23;19920;-80
2023/01/25 00:44:36;;;;;;;;;;;5.40;72.80;;;4.17;56.66;102584.13;6152442;23;19928;-80
2023/01/25 00:47:03;;;;;;;;;;;5.40;72.70;;;4.07;57.44;102576.91;6150056;23;19947;-80
2023/01/25 00:49:31;;;;;;;;;;;5.40;72.90;;;4.07;56.80;102584.84;6152210;23;20329;-80
2023/01/25 00:51:59;;;;;;;;;;;5.40;72.90;;;3.86;57.60;102581.19;6151095;23;19939;-80
2023/01/25 00:54:26;;;;;;;;;;;5.30;73.10;;;3.77;57.87;102579.25;6149792;23;19920;-80
2023/01/25 00:56:55;;;;;;;;;;;5.20;73.20;;;3.81;57.86;102585.97;6150307;23;20240;-81
2023/01/25 00:59:23;;;;;;;;;;;5.20;73.50;;;3.87;57.93;102582.88;6150268;23;19939;-80
2023/01/25 01:01:50;;;;;;;;;;;5.10;73.80;;;3.91;58.05;102581.69;6151029;23;20319;-80
2023/01/25 01:04:18;;;;;;;;;;;5.20;73.80;;;3.91;57.79;102579.03;6149623;23;19917;-80
2023/01/25 01:06:46;;;;;;;;;;;5.20;73.90;;;3.97;57.60;102580.38;6150346;23;19916;-80
2023/01/25 01:09:17;;;;;;;;;;;5.20;73.70;;;3.97;57.77;102565.38;6150626;23;20303;-80
2023/01/25 01:11:44;;;;;;;;;;;5.20;73.80;;;3.97;57.67;102569.81;6151804;23;20032;-80
2023/01/25 01:14:11;;;;;;;;;;;5.20;73.70;;;3.99;57.76;102571.38;6150449;23;19920;-81
2023/01/25 01:16:38;;;;;;;;;;;5.20;73.70;;;4.03;57.45;102572.81;6151943;23;19928;-81
2023/01/25 01:19:06;;;;;;;;;;;5.30;73.30;;;4.01;57.39;102574.75;6151622;23;19916;-80
2023/01/25 01:21:34;;;;;;;;;;;5.30;73.10;;;4.04;57.15;102582.41;6149243;23;19934;-80
2023/01/25 01:24:01;;;;;;;;;;;5.30;73.00;;;4.09;56.77;102575.00;6151876;23;20459;-80
2023/01/25 01:26:30;;;;;;;;;;;5.30;72.80;;;4.13;56.87;102575.59;6149851;23;19993;-80
2023/01/25 01:28:58;;;;;;;;;;;5.40;72.90;;;4.11;57.26;102575.72;6152184;23;20262;-80
2023/01/25 01:31:25;;;;;;;;;;;5.40;72.90;;;4.09;56.98;102575.00;6150080;23;19920;-81
2023/01/25 01:34:01;;;;;;;;;;;5.40;72.90;;;4.12;57.07;102576.56;6150566;23;19916;-80
2023/01/25 01:36:29;;;;;;;;;;;5.40;73.10;;;4.12;57.37;102574.78;6149221;23;19971;-80
2023/01/25 01:38:57;;;;;;;;;;;5.40;73.10;;;4.16;57.00;102574.53;6151269;23;19947;-81
2023/01/25 01:41:25;;;;;;;;;;;5.40;72.90;;;4.14;57.14;102561.44;6150310;23;20011;-80
2023/01/25 01:43:53;;;;;;;;;;;5.40;72.90;;;4.18;57.09;102567.34;6150087;23;20393;-80
2023/01/25 01:46:27;;;;;;;;;;;5.40;72.90;;;4.17;57.20;102557.72;6149759;23;20024;-80
2023/01/25 01:48:59;;;;;;;;;;;5.40;73.10;;;4.05;57.55;102559.50;6149756;23;19917;-80
2023/01/25 01:51:34;;;;;;;;;;;5.30;73.30;;;4.10;56.83;102563.50;6149934;23;19920;-80
2023/01/25 01:54:05;;;;;;;;;;;5.30;73.10;;;4.11;56.99;102565.16;6149469;23;19975;-80
2023/01/25 01:56:35;;;;;;;;;;;5.30;72.90;;;4.11;57.00;102566.97;6151196;23;19967;-80
2023/01/25 01:59:05;;;;;;;;;;;5.40;72.80;;;4.11;56.97;102561.69;6149951;23;19934;-80
2023/01/25 02:01:32;;;;;;;;;;;5.30;72.70;;;4.13;56.95;102560.59;6149739;23;20232;-80
2023/01/25 02:04:00;;;;;;;;;;;5.40;73.20;;;4.11;57.24;102554.59;6150144;23;19931;-80
2023/01/25 02:06:32;;;;;;;;;;;5.30;73.00;;;4.10;57.23;102554.75;6149586;23;19920;-80
2023/01/25 02:09:00;;;;;;;;;;;5.30;73.10;;;4.09;57.32;102564.44;6149944;23;20338;-80
2023/01/25 02:11:27;;;;;;;;;;;5.30;73.10;;;4.01;57.04;102560.72;6149536;23;20357;-80
2023/01/25 02:13:56;;;;;;;;;;;5.20;72.90;;;3.97;57.19;102559.25;6150239;23;19928;-80
2023/01/25 02:16:26;;;;;;;;;;;5.20;73.20;;;3.96;56.93;102561.06;6150321;23;19959;-80
2023/01/25 02:18:54;;;;;;;;;;;5.10;73.30;;;3.86;57.23;102562.72;6150808;23;19935;-80
2023/01/25 02:21:23;;;;;;;;;;;5.10;73.30;;;3.86;57.45;102573.28;6151950;23;19920;-80
2023/01/25 02:23:54;;;;;;;;;;;5.10;73.70;;;3.94;57.32;102554.19;6150791;23;19927;-80
2023/01/25 02:26:23;;;;;;;;;;;5.10;73.60;;;3.93;57.20;102552.53;6151478;23;20366;-80
2023/01/25 02:28:56;;;;;;;;;;;5.10;73.50;;;3.97;57.17;102553.97;6148934;23;20518;-80
2023/01/25 02:31:24;;;;;;;;;;;5.10;73.60;;;3.95;57.40;102550.59;6148554;23;19923;-80
2023/01/25 02:33:52;;;;;;;;;;;5.10;73.60;;;3.84;57.81;102543.50;6150142;23;19924;-80
2023/01/25 02:36:24;;;;;;;;;;;5.10;73.70;;;3.88;57.56;102551.06;6151725;23;19920;-80
2023/01/25 02:38:54;;;;;;;;;;;5.10;73.70;;;3.92;57.28;102551.69;6149971;23;19995;-80
2023/01/25 02:41:30;;;;;;;;;;;5.10;73.60;;;3.94;57.58;102562.13;6150034;23;19922;-80
2023/01/25 02:43:57;;;;;;;;;;;5.20;73.50;;;3.96;57.37;102553.16;6148996;23;19924;-80
2023/01/25 02:46:27;;;;;;;;;;;5.20;73.30;;;3.96;57.11;102557.59;6151111;23;19968;-80
2023/01/25 02:48:55;;;;;;;;;;;5.20;73.30;;;3.95;57.28;102553.25;6149668;23;19921;-80
2023/01/25 02:51:23;;;;;;;;;;;5.20;73.10;;;3.95;57.17;102556.72;6151956;23;19955;-80
2023/01/25 02:53:50;;;;;;;;;;;5.20;73.10;;;3.91;57.56;102547.38;6150106;23;20570;-80
2023/01/25 02:56:18;;;;;;;;;;;5.30;73.40;;;3.94;57.59;102552.41;6149860;23;19920;-80
2023/01/25 02:58:47;;;;;;;;;;;5.20;73.30;;;3.94;57.37;102556.84;6149021;23;19920;-80
2023/01/25 03:01:14;;;;;;;;;;;5.30;73.20;;;3.89;57.42;102549.28;6149293;23;19978;-81
2023/01/25 03:03:42;;;;;;;;;;;5.20;73.10;;;3.87;57.67;102554.66;6149906;23;19916;-81
2023/01/25 03:06:09;;;;;;;;;;;5.30;73.40;;;3.75;58.24;102550.31;6151451;23;19967;-81
2023/01/25 03:08:36;;;;;;;;;;;5.20;73.70;;;3.86;57.97;102557.44;6151400;23;19957;-81
2023/01/25 03:11:05;;;;;;;;;;;5.10;73.70;;;3.90;57.94;102545.66;6153682;23;19920;-81
2023/01/25 03:13:33;;;;;;;;;;;5.10;73.60;;;3.93;57.89;102545.44;6151728;23;19923;-81
2023/01/25 03:16:03;;;;;;;;;;;5.20;73.60;;;3.97;57.37;102549.53;6151277;23;19924;-81
2023/01/25 03:18:30;;;;;;;;;;;5.20;73.50;;;4.00;57.33;102541.41;6150385;23;20546;-81
2023/01/25 03:21:04;;;;;;;;;;;5.20;73.50;;;3.98;57.69;102539.81;6152089;23;19999;-81
2023/01/25 03:23:31;;;;;;;;;;;5.20;73.50;;;3.99;57.44;102547.59;6153626;23;19920;-80
2023/01/25 03:26:05;;;;;;;;;;;5.20;73.50;;;3.99;57.39;102534.41;6153432;23;20344;-81
2023/01/25 03:28:33;;;;;;;;;;;5.20;73.40;;;3.98;57.59;102534.53;6151979;23;19921;-81
2023/01/25 03:31:00;;;;;;;;;;;5.20;73.30;;;3.94;57.36;102531.28;6151291;23;19916;-81
2023/01/25 03:33:29;;;;;;;;;;;5.20;73.40;;;3.89;57.37;102525.50;6151060;23;19920;-81
2023/01/25 03:35:56;;;;;;;;;;;5.10;73.50;;;3.93;57.40;102526.97;6151657;23;20598;-81
2023/01/25 03:38:24;;;;;;;;;;;5.10;73.70;;;3.92;57.40;102525.28;6153344;23;20267;-81
2023/01/25 03:40:51;;;;;;;;;;;5.10;73.50;;;3.94;57.20;102517.25;6151671;23;19927;-81
2023/01/25 03:43:18;;;;;;;;;;;5.10;73.40;;;3.93;57.22;102516.41;6151782;23;19931;-81
2023/01/25 03:45:53;;;;;;;;;;;5.10;73.40;;;3.87;57.23;102522.16;6150693;23;19927;-80
2023/01/25 03:48:20;;;;;;;;;;;5.10;73.60;;;3.81;57.39;102507.63;6151100;23;19991;-81
2023/01/25 03:50:51;;;;;;;;;;;5.00;73.60;;;3.85;57.40;102508.22;6150987;23;19959;-80
2023/01/25 03:53:26;;;;;;;;;;;5.10;73.90;;;3.84;57.47;102504.75;6151670;23;19925;-81
2023/01/25 03:55:55;;;;;;;;;;;5.00;73.70;;;3.87;57.41;102501.88;6153145;23;19944;-81
2023/01/25 03:58:22;;;;;;;;;;;5.10;73.90;;;3.87;57.70;102495.78;6151357;23;19971;-81
2023/01/25 04:00:51;;;;;;;;;;;5.00;73.60;;;3.82;57.60;102490.00;6151634;23;20344;-81
2023/01/25 04:03:18;;;;;;;;;;;5.00;73.90;;;3.81;57.96;102490.97;6150877;23;19924;-81
2023/01/25 04:05:46;;;;;;;;;;;5.00;74.10;;;3.82;57.88;102487.38;6151072;23;19920;-81
2023/01/25 04:08:15;;;;;;;;;;;5.00;74.10;;;3.76;58.04;102479.94;6150065;23;19925;-81
2023/01/25 04:10:43;;;;;;;;;;;4.90;74.10;;;3.76;57.97;102487.84;6151487;23;19950;-81
2023/01/25 04:13:10;;;;;;;;;;;4.90;74.20;;;3.78;58.12;102485.91;6151328;23;19924;-81
2023/01/25 04:15:37;;;;;;;;;;;4.90;74.30;;;3.80;57.52;102481.34;6149752;23;20422;-81
2023/01/25 04:18:11;;;;;;;;;;;4.90;73.90;;;3.77;57.62;102474.53;6150008;23;19921;-81
2023/01/25 04:20:39;;;;;;;;;;;4.90;74.30;;;3.75;57.86;102471.13;6152524;23;19942;-81
2023/01/25 04:23:06;;;;;;;;;;;4.90;74.70;;;3.75;58.02;102463.22;6152515;23;19920;-81
2023/01/25 04:25:38;;;;;;;;;;;4.90;74.50;;;3.77;57.88;102457.84;6150328;23;20406;-81
2023/01/25 04:28:11;;;;;;;;;;;4.90;74.30;;;3.77;58.14;102461.31;6152389;23;20344;-81
2023/01/25 04:30:38;;;;;;;;;;;4.90;74.20;;;3.79;58.02;102461.19;6150857;23;19964;-81
2023/01/25 04:33:06;;;;;;;;;;;5.00;74.40;;;3.79;58.21;102461.19;6150544;23;19931;-81
2023/01/25 04:35:34;;;;;;;;;;;5.00;74.50;;;3.79;58.49;102458.56;6150040;23;19920;-81
2023/01/25 04:38:02;;;;;;;;;;;5.00;74.50;;;3.80;58.46;102462.88;6149772;23;19920;-81
2023/01/25 04:40:36;;;;;;;;;;;5.00;74.60;;;3.74;58.69;102453.63;6150655;23;20229;-81
2023/01/25 04:43:05;;;;;;;;;;;5.00;74.70;;;3.78;58.33;102454.25;6150897;23;19923;-80
2023/01/25 04:45:34;;;;;;;;;;;5.00;74.60;;;3.82;58.30;102453.06;6150227;23;19958;-81
2023/01/25 04:48:08;;;;;;;;;;;5.00;74.50;;;3.80;58.29;102447.03;6150401;23;19954;-81
2023/01/25 04:50:36;;;;;;;;;;;5.00;74.70;;;3.78;58.63;102447.16;6150719;23;20254;-81
2023/01/25 04:53:04;;;;;;;;;;;5.00;74.90;;;3.81;58.64;102448.75;6150897;23;19948;-81
2023/01/25 04:55:32;;;;;;;;;;;5.00;74.80;;;3.83;58.60;102438.91;6150348;23;20012;-81
2023/01/25 04:57:59;;;;;;;;;;;5.00;74.70;;;3.81;58.67;102428.47;6149225;23;19947;-81
2023/01/25 05:00:27;;;;;;;;;;;5.00;74.70;;;3.82;58.61;102429.31;6150430;23;20295;-81
2023/01/25 05:02:54;;;;;;;;;;;5.00;74.70;;;3.84;58.29;102432.66;6150561;23;19944;-81
2023/01/25 05:05:22;;;;;;;;;;;5.00;74.60;;;3.88;58.54;102437.56;6150784;23;19971;-82
2023/01/25 05:07:49;;;;;;;;;;;5.10;74.90;;;3.88;58.33;102423.53;6150820;23;19966;-89
2023/01/25 05:10:16;;;;;;;;;;;5.00;74.70;;;3.83;58.89;102434.44;6153038;23;20003;-90
2023/01/25 05:13:04;;;;;;;;;;;5.00;75.00;;;3.84;58.64;102430.84;6150412;23;19924;-85
2023/01/25 05:15:33;;;;;;;;;;;5.00;75.10;;;3.82;58.96;102434.59;6148019;23;19940;-85
2023/01/25 05:18:00;;;;;;;;;;;5.00;75.10;;;3.79;58.90;102433.00;6149759;23;19920;-83
2023/01/25 05:20:27;;;;;;;;;;;4.90;75.50;;;3.83;58.81;102433.63;6150007;23;19952;-83
2023/01/25 05:22:54;;;;;;;;;;;5.10;75.50;;;3.82;58.82;102431.94;6150242;23;19959;-83
2023/01/25 05:28:07;;;;;;;;;;;5.00;75.40;;;3.82;59.18;102431.94;6149389;23;20017;-82
2023/01/25 05:31:03;;;;;;;;;;;5.00;75.40;;;3.83;58.81;102431.81;6149831;23;19920;-82
2023/01/25 05:33:31;;;;;;;;;;;5.00;75.40;;;3.83;59.06;102439.72;6150263;23;20398;-82
2023/01/25 05:35:58;;;;;;;;;;;5.00;75.40;;;3.86;59.23;102436.03;6150216;23;20348;-82
2023/01/25 05:38:29;;;;;;;;;;;5.10;75.40;;;3.87;58.94;102438.53;6150246;23;19924;-82
2023/01/25 05:40:58;;;;;;;;;;;5.00;75.40;;;3.85;59.15;102436.97;6149671;23;20022;-84
2023/01/25 05:43:26;;;;;;;;;;;5.00;75.60;;;3.76;59.22;102437.69;6150701;23;19952;-83
2023/01/25 05:45:53;;;;;;;;;;;4.90;75.70;;;3.75;59.07;102426.28;6150112;23;19955;-82
2023/01/25 05:48:22;;;;;;;;;;;5.00;75.80;;;3.74;59.45;102429.03;6147864;23;19967;-81
2023/01/25 05:50:49;;;;;;;;;;;4.90;75.80;;;3.75;59.84;102425.44;6150238;23;19927;-81
2023/01/25 05:53:24;;;;;;;;;;;5.00;76.00;;;3.74;60.02;102424.59;6150318;23;19927;-80
2023/01/25 05:55:51;;;;;;;;;;;5.00;76.00;;;3.72;59.91;102430.97;6150926;23;19920;-80
2023/01/25 05:58:19;;;;;;;;;;;5.00;76.00;;;3.69;60.14;102421.47;6147393;23;19955;-79
2023/01/25 06:00:46;;;;;;;;;;;4.90;76.20;;;3.75;60.15;102422.81;6149806;23;19920;-79
2023/01/25 06:03:25;;;;;;;;;;;5.00;76.10;;;3.76;59.64;102419.22;6149928;23;19967;-79
2023/01/25 06:05:55;;;;;;;;;;;5.00;76.00;;;3.74;59.84;102421.97;6148817;23;19951;-80
2023/01/25 06:08:22;;;;;;;;;;;5.00;76.20;;;3.76;60.13;102420.06;6149362;23;20003;-79
2023/01/25 06:10:51;;;;;;;;;;;5.00;76.10;;;3.77;60.23;102420.91;6150371;23;19952;-79
2023/01/25 06:13:19;;;;;;;;;;;5.00;76.20;;;3.77;60.04;102416.47;6149403;23;19943;-79
2023/01/25 06:15:51;;;;;;;;;;;5.00;76.20;;;3.72;60.31;102423.91;6150320;23;19931;-79
2023/01/25 06:18:40;;;;;;;;;;;4.90;76.60;;;3.70;60.22;102419.69;6151954;23;19924;-80
2023/01/25 06:21:25;;;;;;;;;;;5.00;77.00;;;3.71;60.64;102418.72;6150924;23;19943;-79
2023/01/25 06:23:52;;;;;;;;;;;4.90;77.10;;;3.70;60.26;102423.16;6151737;23;20407;-79
2023/01/25 06:26:19;;;;;;;;;;;4.90;77.10;;;3.73;60.64;102422.09;6150536;23;20315;-79
2023/01/25 06:28:46;;;;;;;;;;;4.90;77.00;;;3.76;60.53;102414.78;6151701;23;19928;-79
2023/01/25 06:31:16;;;;;;;;;;;4.90;77.00;;;3.73;60.74;102415.00;6150196;23;19927;-80
2023/01/25 06:33:48;;;;;;;;;;;4.90;77.00;;;3.71;60.57;102413.44;6150102;23;19946;-79
2023/01/25 06:36:17;;;;;;;;;;;4.90;77.00;;;3.71;60.64;102413.44;6149294;23;19920;-80
2023/01/25 06:38:47;;;;;;;;;;;4.90;77.20;;;3.69;60.53;102418.84;6151017;23;19920;-80
2023/01/25 06:41:14;;;;;;;;;;;4.90;77.30;;;3.72;60.96;102418.63;6151325;23;20003;-79
2023/01/25 06:43:41;;;;;;;;;;;4.90;77.30;;;3.75;60.55;102417.53;6151023;23;19920;-80
2023/01/25 06:46:11;;;;;;;;;;;4.90;77.20;;;3.70;60.69;102417.03;6150944;23;19920;-79
2023/01/25 06:48:38;;;;;;;;;;;4.90;77.20;;;3.70;60.51;102419.69;6151657;23;19999;-79
2023/01/25 06:51:10;;;;;;;;;;;4.90;77.10;;;3.69;60.99;102415.38;6151789;23;19926;-79
2023/01/25 06:53:39;;;;;;;;;;;4.90;77.40;;;3.68;60.72;102424.25;6151841;23;19927;-80
2023/01/25 06:56:09;;;;;;;;;;;4.90;77.40;;;3.70;60.42;102417.03;6150401;23;19920;-80
2023/01/25 06:58:36;;;;;;;;;;;4.90;77.10;;;3.70;60.71;102414.41;6150955;23;20378;-79
2023/01/25 07:01:05;;;;;;;;;;;4.90;77.20;;;3.72;60.43;102421.25;6151584;23;19920;-80
2023/01/25 07:03:32;;;;;;;;;;;4.90;77.00;;;3.73;60.39;102424.72;6151442;23;19927;-79
2023/01/25 07:06:00;;;;;;;;;;;4.90;76.90;;;3.71;60.60;102416.94;6150923;23;19931;-80
2023/01/25 07:08:28;;;;;;;;;;;4.90;76.70;;;3.66;60.40;102416.47;6150220;23;19928;-80
2023/01/25 07:10:57;;;;;;;;;;;4.90;76.80;;;3.67;60.83;102415.50;6151313;23;19991;-79
2023/01/25 07:13:24;;;;;;;;;;;4.90;76.80;;;3.70;60.72;102415.25;6150879;23;19921;-79
2023/01/25 07:15:56;;;;;;;;;;;5.00;76.80;;;3.77;60.34;102419.09;6150588;23;19931;-80
2023/01/25 07:18:23;;;;;;;;;;;5.00;76.80;;;3.74;60.56;102424.59;6150745;23;19917;-79
2023/01/25 07:20:50;;;;;;;;;;;4.90;76.80;;;3.73;60.51;102420.28;6149997;23;19920;-79
2023/01/25 07:23:18;;;;;;;;;;;5.00;76.90;;;3.71;60.77;102418.72;6151318;23;20330;-79
2023/01/25 07:25:47;;;;;;;;;;;4.90;77.00;;;3.70;60.57;102415.25;6149563;23;19920;-79
2023/01/25 07:28:15;;;;;;;;;;;5.00;77.00;;;3.66;60.68;102420.88;6151100;23;20339;-79
2023/01/25 07:30:43;;;;;;;;;;;4.90;77.10;;;3.64;60.76;102418.34;6150817;23;19920;-79
2023/01/25 07:33:11;;;;;;;;;;;5.00;77.00;;;3.67;60.92;102409.38;6148738;23;19920;-79
2023/01/25 07:35:38;;;;;;;;;;;4.90;77.10;;;3.62;60.80;102415.00;6149532;23;19916;-80
2023/01/25 07:38:05;;;;;;;;;;;4.90;77.20;;;3.66;60.88;102410.31;6151220;23;19999;-80
2023/01/25 07:40:32;;;;;;;;;;;4.90;77.30;;;3.68;60.87;102408.41;6151134;23;19926;-79
2023/01/25 07:43:00;;;;;;;;;;;4.90;77.20;;;3.64;60.96;102404.31;6151201;23;19967;-79
2023/01/25 07:45:30;;;;;;;;;;;4.90;77.40;;;3.65;60.89;102409.47;6148544;23;19927;-80
2023/01/25 07:47:58;;;;;;;;;;;4.90;77.40;;;3.67;60.94;102409.38;6150312;23;19931;-81
2023/01/25 07:50:25;;;;;;;;;;;4.90;77.40;;;3.55;61.47;102405.88;6148909;23;20343;-80
2023/01/25 07:52:52;;;;;;;;;;;4.80;77.60;;;3.53;61.50;102403.34;6153301;23;20411;-80
2023/01/25 07:55:19;;;;;;;;;;;4.80;77.80;;;3.54;61.64;102405.03;6153101;23;19926;-80
2023/01/25 07:57:46;;;;;;;;;;;4.80;77.80;;;3.55;61.46;102398.78;6151989;23;19936;-79
2023/01/25 08:00:15;;;;;;;;;;;4.70;78.10;;;3.52;61.60;102406.97;6152231;23;20023;-79
2023/01/25 08:02:42;;;;;;;;;;;4.70;78.20;;;3.58;61.56;102401.22;6150440;23;19926;-79
2023/01/25 08:05:10;;;;;;;;;;;4.80;78.00;;;3.56;61.64;102400.50;6152644;23;19943;-77
2023/01/25 08:07:37;;;;;;;;;;;4.80;78.00;;;3.51;61.63;102405.25;6151975;23;20038;-77
2023/01/25 08:10:05;;;;;;;;;;;4.70;78.00;;;3.51;61.48;102399.13;6152987;23;19920;-77
2023/01/25 08:12:33;;;;;;;;;;;4.70;78.30;;;3.50;61.62;102403.59;6152391;23;19920;-77
2023/01/25 08:15:00;;;;;;;;;;;4.80;78.10;;;3.53;61.62;102399.88;6150589;23;19975;-77
2023/01/25 08:17:31;;;;;;;;;;;4.80;78.10;;;3.58;61.96;102393.28;6151691;23;20403;-77
2023/01/25 08:19:58;;;;;;;;;;;4.80;78.20;;;3.64;61.42;102391.97;6150831;23;19963;-77
2023/01/25 08:22:26;;;;;;;;;;;4.80;78.00;;;3.60;61.38;102388.72;6153090;23;19917;-77
2023/01/25 08:24:55;;;;;;;;;;;4.80;77.90;;;3.63;61.08;102392.09;6152791;23;19920;-77
2023/01/25 08:27:22;;;;;;;;;;;4.80;77.80;;;3.59;61.21;102389.69;6152390;23;20358;-77
2023/01/25 08:29:52;;;;;;;;;;;4.90;77.80;;;3.65;61.50;102385.72;6150552;23;19924;-77
2023/01/25 08:32:19;;;;;;;;;;;4.90;77.80;;;3.67;61.17;102390.91;6152260;23;19920;-77
2023/01/25 08:34:48;;;;;;;;;;;4.90;77.70;;;3.63;61.30;102382.38;6151226;23;19956;-77
2023/01/25 08:37:14;;;;;;;;;;;4.90;77.70;;;3.60;61.28;102382.59;6151252;23;19976;-77
2023/01/25 08:39:41;;;;;;;;;;;4.90;77.80;;;3.61;61.46;102385.16;6149080;23;19920;-77
2023/01/25 08:42:08;;;;;;;;;;;4.80;77.90;;;3.63;61.47;102371.84;6151232;23;19917;-77
2023/01/25 08:44:35;;;;;;;;;;;4.90;78.00;;;3.61;61.35;102379.00;6152426;23;19920;-77
2023/01/25 08:47:02;;;;;;;;;;;4.80;77.90;;;3.58;61.58;102380.09;6150615;23;20351;-77
2023/01/25 08:49:30;;;;;;;;;;;4.80;78.00;;;3.56;61.95;102386.44;6152381;23;19920;-77
2023/01/25 08:51:58;;;;;;;;;;;4.80;78.10;;;3.60;61.72;102382.59;6150395;23;19932;-77
2023/01/25 08:54:25;;;;;;;;;;;4.80;77.90;;;3.63;61.69;102382.38;6152264;23;19997;-77
2023/01/25 08:56:52;;;;;;;;;;;4.80;78.10;;;3.66;61.35;102376.88;6152117;23;19920;-77
2023/01/25 08:59:19;;;;;;;;;;;4.90;78.20;;;3.56;61.76;102373.25;6152334;23;19920;-77
2023/01/25 09:01:46;;;;;;;;;;;4.80;78.10;;;3.53;62.19;102378.78;6152360;23;20247;-77
2023/01/25 09:04:13;;;;;;;;;;;4.80;78.40;;;3.59;61.98;102376.50;6151759;23;19920;-77
2023/01/25 09:06:40;;;;;;;;;;;4.80;78.40;;;3.61;62.00;102371.97;6152356;23;19920;-77
2023/01/25 09:09:09;;;;;;;;;;;4.80;78.20;;;3.64;61.77;102377.94;6151833;23;19921;-77
2023/01/25 09:11:36;;;;;;;;;;;4.80;78.30;;;3.62;62.02;102364.88;6150776;23;19951;-77
2023/01/25 09:14:04;;;;;;;;;;;4.80;78.30;;;3.61;61.50;102369.31;6152401;23;19921;-77
2023/01/25 09:16:31;;;;;;;;;;;4.80;78.20;;;3.59;61.97;102368.59;6152134;23;19925;-77
2023/01/25 09:19:01;;;;;;;;;;;4.80;78.60;;;3.57;62.09;102364.41;6152479;23;20267;-77
2023/01/25 09:21:29;;;;;;;;;;;4.80;78.60;;;3.57;62.11;102367.88;6152448;23;19963;-77
2023/01/25 09:23:56;;;;;;;;;;;4.80;78.60;;;3.53;62.29;102353.25;6152284;23;19921;-77
2023/01/25 09:26:24;;;;;;;;;;;4.70;78.80;;;3.55;62.23;102356.59;6151358;23;20320;-77
2023/01/25 09:28:53;;;;;;;;;;;4.70;78.80;;;3.55;62.06;102361.84;6152316;23;20254;-77
2023/01/25 09:31:21;;;;;;;;;;;4.80;78.60;;;3.57;62.32;102345.94;6150419;23;19920;-76
2023/01/25 09:34:07;;;;;;;;;;;4.80;78.60;;;3.59;61.92;102342.19;6152282;23;19983;-77
2023/01/25 09:36:34;;;;;;;;;;;4.80;78.40;;;3.65;62.17;102340.03;6151992;23;19920;-77
2023/01/25 09:39:01;;;;;;;;;;;4.80;78.40;;;3.65;61.88;102340.03;6151851;23;19925;-77
2023/01/25 09:42:01;;;;;;;;;;;4.80;78.40;;;3.66;62.33;102336.44;6152423;23;20240;-77
2023/01/25 09:44:39;;;;;;;;;;;4.90;78.70;;;3.69;61.61;102338.84;6152019;23;19930;-77
2023/01/25 09:47:16;;;;;;;;;;;4.90;78.30;;;3.70;62.03;102335.25;6152062;23;19920;-77
2023/01/25 09:49:55;;;;;;;;;;;4.90;78.50;;;3.74;61.76;102341.97;6152184;23;19943;-77
2023/01/25 09:52:38;;;;;;;;;;;4.90;78.40;;;3.73;61.57;102335.84;6152312;23;19920;-77
2023/01/25 09:55:12;;;;;;;;;;;4.90;78.40;;;3.75;61.51;102331.28;6152272;23;19921;-77
2023/01/25 09:57:42;;;;;;;;;;;4.90;78.40;;;3.77;61.51;102328.53;6152016;23;19927;-77
2023/01/25 10:00:14;;;;;;;;;;;4.90;78.20;;;3.71;61.48;102329.00;6150850;23;19926;-77
2023/01/25 10:02:47;;;;;;;;;;;4.90;78.40;;;3.71;61.99;102331.66;6151892;23;20520;-77
2023/01/25 10:05:17;;;;;;;;;;;4.80;78.60;;;3.69;61.87;102329.13;6152017;23;19987;-77
2023/01/25 10:07:53;;;;;;;;;;;4.90;78.70;;;3.70;61.63;102327.31;6152173;23;20354;-77
2023/01/25 10:10:23;;;;;;;;;;;4.90;78.60;;;3.67;61.67;102327.59;6152649;23;19923;-76
2023/01/25 10:12:51;;;;;;;;;;;4.80;78.60;;;3.61;62.00;102329.75;6152377;23;19917;-76
2023/01/25 10:15:19;;;;;;;;;;;4.70;78.80;;;3.59;61.84;102318.47;6151347;23;19942;-76
2023/01/25 10:17:57;;;;;;;;;;;4.70;79.00;;;3.64;61.87;102333.94;6151040;23;19920;-77
2023/01/25 10:20:32;;;;;;;;;;;4.70;78.90;;;3.63;61.70;102326.16;6149604;23;20325;-76
2023/01/25 10:23:15;;;;;;;;;;;4.70;78.90;;;3.60;61.93;102322.78;6152131;23;19924;-76
2023/01/25 10:25:45;;;;;;;;;;;4.80;78.70;;;3.61;61.76;102324.47;6152116;23;19931;-76
2023/01/25 10:28:30;;;;;;;;;;;4.80;78.60;;;3.63;61.48;102319.06;6151987;23;19928;-77
2023/01/25 10:31:00;;;;;;;;;;;4.80;78.40;;;3.64;61.46;102312.81;6150651;23;19924;-76
2023/01/25 10:33:29;;;;;;;;;;;4.80;78.40;;;3.59;61.98;102313.19;6151136;23;20346;-76
2023/01/25 10:35:58;;;;;;;;;;;4.80;78.60;;;3.66;61.65;102316.19;6149811;23;19935;-76
2023/01/25 10:38:30;;;;;;;;;;;4.80;78.30;;;3.70;61.63;102303.59;6151303;23;20007;-76
2023/01/25 10:41:01;;;;;;;;;;;4.80;78.40;;;3.68;61.35;102303.72;6151919;23;19980;-77
2023/01/25 10:43:29;;;;;;;;;;;4.80;78.10;;;3.70;60.98;102293.88;6151647;23;19992;-76
2023/01/25 10:45:56;;;;;;;;;;;4.80;77.80;;;3.66;60.77;102291.59;6151401;23;19932;-76
2023/01/25 10:48:27;;;;;;;;;;;4.80;77.60;;;3.64;60.86;102288.25;6151571;23;19920;-77
2023/01/25 10:50:56;;;;;;;;;;;4.80;77.70;;;3.68;60.78;102287.06;6151744;23;19921;-77
2023/01/25 10:53:34;;;;;;;;;;;4.80;77.70;;;3.61;61.10;102284.91;6151652;23;19931;-76
2023/01/25 10:56:21;;;;;;;;;;;4.70;77.70;;;3.64;61.34;102277.69;6151362;23;19920;-76
2023/01/25 10:58:53;;;;;;;;;;;4.70;78.20;;;3.64;61.15;102280.34;6149814;23;20326;-77
2023/01/25 11:01:29;;;;;;;;;;;4.70;78.10;;;3.64;60.94;102272.41;6150926;23;19928;-77
2023/01/25 11:03:56;;;;;;;;;;;4.70;78.10;;;3.66;60.84;102270.47;6150790;23;19916;-77
2023/01/25 11:06:33;;;;;;;;;;;4.70;78.10;;;3.69;60.81;102267.63;6150959;23;19916;-76
2023/01/25 11:09:00;;;;;;;;;;;4.70;78.00;;;3.66;60.63;102260.78;6151850;23;19920;-76
2023/01/25 11:11:32;;;;;;;;;;;4.70;77.60;;;3.67;60.35;102269.53;6151096;23;19928;-76
2023/01/25 11:14:00;;;;;;;;;;;4.70;77.40;;;3.58;60.31;102261.38;6151994;23;19927;-77
2023/01/25 11:16:38;;;;;;;;;;;4.70;77.20;;;3.57;60.77;102259.72;6147981;23;19928;-77
2023/01/25 11:19:26;;;;;;;;;;;4.80;77.20;;;3.58;60.85;102253.47;6150221;23;20349;-76
2023/01/25 11:21:54;;;;;;;;;;;4.80;77.30;;;3.58;60.45;102242.94;6150105;23;19916;-77
2023/01/25 11:24:25;;;;;;;;;;;4.80;77.20;;;3.53;60.63;102239.81;6150922;23;20425;-77
2023/01/25 11:27:11;;;;;;;;;;;4.70;77.20;;;3.42;60.39;102242.47;6151665;23;20007;-77
2023/01/25 11:29:40;;;;;;;;;;;4.60;76.80;;;3.40;60.80;102232.97;6153121;23;19939;-76
2023/01/25 11:32:19;;;;;;;;;;;4.50;77.40;;;3.26;60.49;102223.50;6152942;23;20008;-77
2023/01/25 11:34:46;;;;;;;;;;;4.50;77.20;;;3.26;60.83;102216.44;6153782;23;20263;-76
2023/01/25 11:37:37;;;;;;;;;;;4.40;77.80;;;3.35;60.94;102213.09;6151883;23;20351;-76
2023/01/25 11:40:14;;;;;;;;;;;4.50;77.80;;;3.44;61.12;102200.13;6153245;23;19947;-76